createdAt,value
2022-08-16T00:00:52.215Z,21.70
2022-08-16T00:02:14.499Z,21.70
2022-08-16T00:03:37.830Z,21.90
2022-08-16T00:05:00.903Z,21.80
2022-08-16T00:06:23.025Z,21.80
2022-08-16T00:07:45.156Z,21.80
2022-08-16T00:09:08.327Z,21.80
2022-08-16T00:10:33.780Z,21.80
2022-08-16T00:11:55.913Z,21.80
2022-08-16T00:13:20.840Z,21.80
2022-08-16T00:14:43.224Z,21.80
2022-08-16T00:16:57.958Z,21.80
2022-08-16T00:17:56.075Z,21.80
2022-08-16T00:19:24.724Z,21.80
2022-08-16T00:20:50.777Z,21.80
2022-08-16T00:22:15.313Z,21.80
2022-08-16T00:23:40.216Z,21.80
2022-08-16T00:25:03.038Z,21.70
2022-08-16T00:26:35.740Z,21.70
2022-08-16T00:28:01.668Z,21.70
2022-08-16T00:29:23.748Z,21.70
2022-08-16T00:30:45.945Z,21.70
2022-08-16T00:32:18.048Z,21.70
2022-08-16T00:33:40.713Z,21.70
2022-08-16T00:35:16.029Z,21.70
2022-08-16T00:36:38.731Z,21.70
2022-08-16T00:38:41.459Z,21.70
2022-08-16T00:39:57.284Z,21.70
2022-08-16T00:41:20.719Z,21.70
2022-08-16T00:42:43.578Z,21.60
2022-08-16T00:44:11.119Z,21.70
2022-08-16T00:46:00.976Z,21.70
2022-08-16T00:47:49.032Z,21.70
2022-08-16T00:49:17.323Z,21.70
2022-08-16T00:50:42.752Z,21.70
2022-08-16T00:52:05.415Z,21.70
2022-08-16T00:53:49.011Z,21.70
2022-08-16T00:55:11.267Z,21.60
2022-08-16T00:56:57.703Z,21.60
2022-08-16T00:58:34.598Z,21.50
2022-08-16T00:59:59.377Z,21.50
2022-08-16T01:01:23.242Z,21.50
2022-08-16T01:02:46.922Z,21.50
2022-08-16T01:04:29.245Z,21.50
2022-08-16T01:05:53.716Z,21.50
2022-08-16T01:07:17.730Z,21.50
2022-08-16T01:08:42.484Z,21.40
2022-08-16T01:10:16.067Z,21.50
2022-08-16T01:11:53.723Z,21.40
2022-08-16T01:13:21.890Z,21.40
2022-08-16T01:14:53.271Z,21.40
2022-08-16T01:16:21.362Z,21.40
2022-08-16T01:17:47.501Z,21.40
2022-08-16T01:19:22.341Z,21.30
2022-08-16T01:20:51.961Z,21.30
2022-08-16T01:22:47.684Z,21.30
2022-08-16T01:24:52.369Z,21.30
2022-08-16T01:26:34.157Z,21.30
2022-08-16T01:27:55.096Z,21.30
2022-08-16T01:29:24.073Z,21.20
2022-08-16T01:31:08.262Z,21.20
2022-08-16T01:32:36.054Z,21.20
2022-08-16T01:33:58.192Z,21.20
2022-08-16T01:35:35.339Z,21.20
2022-08-16T01:37:07.283Z,21.10
2022-08-16T01:38:34.427Z,21.10
2022-08-16T01:39:56.548Z,21.10
2022-08-16T01:41:22.328Z,21.00
2022-08-16T01:42:49.701Z,21.00
2022-08-16T01:44:18.593Z,21.00
2022-08-16T01:45:41.616Z,21.00
2022-08-16T01:47:05.974Z,20.90
2022-08-16T01:48:32.375Z,20.90
2022-08-16T01:50:43.440Z,20.90
2022-08-16T01:51:42.120Z,20.80
2022-08-16T01:53:05.924Z,20.80
2022-08-16T01:54:30.674Z,20.80
2022-08-16T01:55:54.346Z,20.80
2022-08-16T01:57:16.422Z,20.80
2022-08-16T01:58:47.930Z,20.80
2022-08-16T02:00:19.271Z,20.70
2022-08-16T02:01:42.825Z,20.70
2022-08-16T02:03:05.016Z,20.70
2022-08-16T02:04:48.594Z,20.70
2022-08-16T02:06:10.000Z,20.60
2022-08-16T02:07:32.238Z,20.60
2022-08-16T02:08:55.358Z,20.60
2022-08-16T02:10:17.612Z,20.60
2022-08-16T02:11:48.334Z,20.60
2022-08-16T02:13:15.066Z,20.60
2022-08-16T02:14:38.451Z,20.50
2022-08-16T02:16:00.737Z,20.50
2022-08-16T02:17:23.305Z,20.50
2022-08-16T02:18:45.774Z,20.50
2022-08-16T02:20:11.879Z,20.50
2022-08-16T02:21:34.168Z,20.40
2022-08-16T02:22:58.140Z,20.40
2022-08-16T02:24:32.611Z,20.40
2022-08-16T02:25:54.947Z,20.40
2022-08-16T02:27:17.130Z,20.40
2022-08-16T02:28:39.246Z,20.40
2022-08-16T02:30:37.519Z,20.40
2022-08-16T02:32:03.527Z,20.40
2022-08-16T02:33:43.907Z,20.30
2022-08-16T02:35:09.254Z,20.30
2022-08-16T02:36:47.752Z,20.30
2022-08-16T02:38:12.968Z,20.30
2022-08-16T02:39:38.135Z,20.30
2022-08-16T02:41:09.597Z,20.20
2022-08-16T02:42:32.026Z,20.20
2022-08-16T02:43:54.094Z,20.20
2022-08-16T02:45:18.775Z,20.20
2022-08-16T02:46:50.354Z,20.20
2022-08-16T02:48:29.414Z,20.20
2022-08-16T02:49:59.084Z,20.20
2022-08-16T02:51:37.050Z,20.20
2022-08-16T02:52:59.347Z,20.10
2022-08-16T02:54:21.506Z,20.10
2022-08-16T02:55:46.138Z,20.10
2022-08-16T02:57:12.963Z,20.10
2022-08-16T02:58:35.060Z,20.10
2022-08-16T02:59:58.350Z,20.10
2022-08-16T03:01:37.197Z,20.10
2022-08-16T03:02:59.951Z,20.10
2022-08-16T03:04:39.406Z,20.00
2022-08-16T03:06:39.069Z,20.00
2022-08-16T03:07:50.449Z,20.00
2022-08-16T03:09:15.093Z,20.00
2022-08-16T03:10:39.074Z,20.00
2022-08-16T03:12:02.782Z,20.00
2022-08-16T03:13:25.029Z,19.90
2022-08-16T03:14:47.894Z,19.90
2022-08-16T03:16:33.143Z,19.90
2022-08-16T03:17:54.230Z,19.90
2022-08-16T03:19:16.483Z,19.90
2022-08-16T03:20:38.636Z,19.90
2022-08-16T03:22:00.694Z,19.90
2022-08-16T03:23:23.436Z,20.20
2022-08-16T03:24:45.535Z,19.90
2022-08-16T03:26:07.903Z,19.90
2022-08-16T03:27:32.430Z,19.90
2022-08-16T03:28:54.873Z,20.00
2022-08-16T03:30:24.253Z,19.90
2022-08-16T03:31:46.864Z,19.90
2022-08-16T03:33:15.787Z,19.90
2022-08-16T03:34:38.040Z,19.90
2022-08-16T03:36:30.091Z,19.80
2022-08-16T03:37:49.103Z,19.80
2022-08-16T03:39:27.125Z,19.80
2022-08-16T03:40:49.381Z,19.80
2022-08-16T03:42:12.564Z,19.80
2022-08-16T03:43:51.171Z,19.80
2022-08-16T03:45:14.621Z,19.80
2022-08-16T03:46:48.117Z,19.80
2022-08-16T03:48:15.021Z,19.80
2022-08-16T03:49:41.075Z,19.80
2022-08-16T03:51:07.976Z,19.80
2022-08-16T03:52:31.916Z,19.80
2022-08-16T03:54:00.834Z,19.80
2022-08-16T03:55:24.184Z,19.80
2022-08-16T03:56:59.453Z,19.80
2022-08-16T03:58:21.733Z,19.80
2022-08-16T03:59:43.859Z,19.80
2022-08-16T04:01:06.670Z,19.80
2022-08-16T04:02:31.831Z,19.80
2022-08-16T04:03:55.147Z,19.80
2022-08-16T04:05:19.077Z,19.90
2022-08-16T04:06:44.584Z,19.90
2022-08-16T04:08:22.852Z,19.90
2022-08-16T04:09:47.163Z,19.90
2022-08-16T04:11:09.321Z,20.00
2022-08-16T04:12:54.626Z,20.00
2022-08-16T04:14:33.397Z,20.00
2022-08-16T04:15:59.191Z,20.00
2022-08-16T04:17:24.189Z,20.10
2022-08-16T04:18:49.437Z,20.20
2022-08-16T04:20:31.180Z,20.20
2022-08-16T04:21:56.739Z,20.20
2022-08-16T04:23:19.319Z,20.30
2022-08-16T04:24:41.759Z,20.40
2022-08-16T04:26:17.364Z,20.40
2022-08-16T04:27:40.906Z,20.50
2022-08-16T04:29:23.849Z,20.90
2022-08-16T04:30:47.880Z,21.50
2022-08-16T04:32:12.705Z,22.20
2022-08-16T04:33:35.993Z,22.90
2022-08-16T04:35:02.240Z,23.40
2022-08-16T04:36:28.601Z,24.00
2022-08-16T04:37:53.965Z,24.50
2022-08-16T04:39:16.465Z,25.00
2022-08-16T04:40:39.147Z,25.40
2022-08-16T04:42:01.602Z,25.70
2022-08-16T04:43:38.154Z,26.00
2022-08-16T04:45:08.640Z,26.30
2022-08-16T04:47:02.588Z,26.60
2022-08-16T04:48:21.754Z,26.80
2022-08-16T04:49:50.475Z,27.10
2022-08-16T04:51:14.542Z,27.50
2022-08-16T04:52:37.194Z,27.70
2022-08-16T04:53:59.750Z,27.80
2022-08-16T04:55:31.757Z,27.90
2022-08-16T04:57:00.250Z,28.10
2022-08-16T04:58:44.379Z,28.30
2022-08-16T05:00:32.764Z,28.40
2022-08-16T05:01:59.258Z,28.60
2022-08-16T05:03:21.596Z,28.80
2022-08-16T05:04:43.984Z,28.80
2022-08-16T05:06:07.051Z,28.80
2022-08-16T05:07:31.439Z,28.90
2022-08-16T05:08:56.625Z,28.90
2022-08-16T05:10:22.749Z,29.00
2022-08-16T05:11:46.260Z,29.00
2022-08-16T05:13:15.533Z,29.10
2022-08-16T05:14:45.184Z,29.30
2022-08-16T05:16:19.947Z,29.40
2022-08-16T05:17:42.626Z,29.50
2022-08-16T05:19:06.256Z,29.50
2022-08-16T05:20:39.434Z,29.50
2022-08-16T05:22:17.985Z,29.50
2022-08-16T05:23:40.741Z,29.50
2022-08-16T05:25:09.013Z,29.60
2022-08-16T05:26:32.279Z,29.60
2022-08-16T05:27:56.613Z,29.50
2022-08-16T05:29:18.810Z,29.50
2022-08-16T05:30:43.114Z,29.60
2022-08-16T05:32:05.733Z,29.60
2022-08-16T05:33:53.494Z,29.70
2022-08-16T05:35:16.934Z,29.70
2022-08-16T05:36:39.098Z,29.60
2022-08-16T05:38:32.829Z,29.60
2022-08-16T05:39:48.323Z,29.60
2022-08-16T05:41:17.398Z,29.60
2022-08-16T05:42:40.934Z,29.60
2022-08-16T05:44:23.958Z,29.50
2022-08-16T05:45:51.195Z,29.50
2022-08-16T05:47:15.209Z,29.60
2022-08-16T05:48:37.955Z,29.70
2022-08-16T05:50:00.035Z,29.60
2022-08-16T05:51:39.105Z,29.60
2022-08-16T05:53:02.531Z,29.80
2022-08-16T05:54:25.832Z,29.80
2022-08-16T05:55:48.208Z,29.80
2022-08-16T05:57:13.468Z,29.70
2022-08-16T05:58:35.616Z,29.50
2022-08-16T05:59:59.891Z,29.30
2022-08-16T06:01:22.785Z,29.20
2022-08-16T06:02:45.103Z,29.10
2022-08-16T06:04:12.608Z,29.10
2022-08-16T06:05:36.709Z,28.80
2022-08-16T06:07:08.208Z,28.70
2022-08-16T06:08:44.736Z,28.50
2022-08-16T06:10:09.722Z,28.30
2022-08-16T06:11:32.123Z,28.10
2022-08-16T06:12:56.009Z,28.00
2022-08-16T06:15:43.424Z,27.80
2022-08-16T06:17:05.767Z,27.40
2022-08-16T06:18:27.813Z,27.10
2022-08-16T06:19:50.030Z,26.90
2022-08-16T06:21:13.994Z,26.70
2022-08-16T06:22:47.566Z,26.40
2022-08-16T06:24:53.782Z,26.00
2022-08-16T06:26:02.175Z,25.80
2022-08-16T06:27:24.505Z,25.60
2022-08-16T06:28:47.515Z,25.50
2022-08-16T06:30:12.302Z,25.40
2022-08-16T06:31:46.642Z,25.20
2022-08-16T06:33:12.745Z,25.20
2022-08-16T06:34:56.570Z,25.10
2022-08-16T06:36:18.010Z,25.00
2022-08-16T06:37:47.517Z,25.00
2022-08-16T06:39:13.470Z,25.00
2022-08-16T06:40:36.213Z,25.00
2022-08-16T06:41:58.399Z,25.00
2022-08-16T06:43:20.659Z,25.00
2022-08-16T06:44:50.395Z,25.00
2022-08-16T06:46:31.520Z,25.00
2022-08-16T06:47:57.021Z,25.00
2022-08-16T06:49:19.153Z,25.00
2022-08-16T06:50:41.635Z,24.90
2022-08-16T06:52:04.685Z,24.90
2022-08-16T06:53:26.897Z,24.90
2022-08-16T06:54:51.917Z,24.90
2022-08-16T06:56:23.387Z,24.90
2022-08-16T06:57:45.766Z,25.00
2022-08-16T06:59:08.911Z,25.00
2022-08-16T07:00:31.378Z,25.10
2022-08-16T07:01:55.374Z,25.00
2022-08-16T07:03:26.959Z,25.00
2022-08-16T07:04:50.669Z,25.00
2022-08-16T07:06:15.280Z,25.00
2022-08-16T07:07:38.324Z,25.00
2022-08-16T07:09:00.980Z,25.10
2022-08-16T07:10:25.834Z,25.10
2022-08-16T07:11:51.678Z,25.10
2022-08-16T07:13:16.665Z,25.10
2022-08-16T07:14:56.370Z,25.10
2022-08-16T07:16:22.905Z,25.20
2022-08-16T07:17:50.030Z,25.10
2022-08-16T07:19:12.093Z,25.20
2022-08-16T07:20:47.768Z,25.20
2022-08-16T07:22:37.996Z,25.20
2022-08-16T07:23:57.880Z,25.30
2022-08-16T07:25:28.306Z,25.30
2022-08-16T07:28:20.273Z,25.30
2022-08-16T07:29:43.280Z,25.30
2022-08-16T07:31:05.552Z,25.40
2022-08-16T07:32:35.416Z,25.40
2022-08-16T07:33:57.508Z,25.50
2022-08-16T07:35:19.869Z,25.50
2022-08-16T07:36:41.950Z,25.60
2022-08-16T07:38:07.991Z,25.60
2022-08-16T07:39:33.515Z,25.70
2022-08-16T07:41:01.475Z,25.70
2022-08-16T07:42:28.262Z,25.70
2022-08-16T07:43:57.476Z,25.80
2022-08-16T07:45:21.906Z,25.90
2022-08-16T07:46:44.186Z,26.00
2022-08-16T07:48:11.815Z,26.10
2022-08-16T07:49:34.881Z,26.10
2022-08-16T07:50:59.237Z,26.10
2022-08-16T07:52:21.774Z,26.10
2022-08-16T07:53:45.268Z,26.10
2022-08-16T07:55:13.828Z,26.10
2022-08-16T07:56:37.000Z,26.20
2022-08-16T07:58:03.174Z,26.20
2022-08-16T07:59:26.127Z,26.20
2022-08-16T08:01:10.573Z,26.40
2022-08-16T08:02:35.362Z,26.40
2022-08-16T08:03:57.584Z,26.40
2022-08-16T08:05:25.476Z,26.50
2022-08-16T08:06:58.983Z,26.60
2022-08-16T08:08:50.222Z,26.60
2022-08-16T08:10:04.721Z,26.60
2022-08-16T08:11:29.325Z,26.60
2022-08-16T08:12:55.066Z,26.60
2022-08-16T08:14:30.148Z,26.60
2022-08-16T08:15:53.398Z,26.60
2022-08-16T08:17:17.181Z,26.60
2022-08-16T08:18:40.535Z,26.60
2022-08-16T08:20:02.789Z,26.60
2022-08-16T08:21:27.512Z,26.70
2022-08-16T08:23:08.618Z,26.70
2022-08-16T08:24:34.676Z,26.70
2022-08-16T08:25:58.867Z,26.80
2022-08-16T08:27:22.774Z,26.80
2022-08-16T08:28:45.985Z,26.90
2022-08-16T08:30:50.447Z,26.90
2022-08-16T08:31:51.952Z,26.90
2022-08-16T08:33:15.025Z,27.00
2022-08-16T08:34:38.006Z,27.00
2022-08-16T08:36:01.896Z,27.10
2022-08-16T08:37:24.035Z,27.10
2022-08-16T08:38:46.391Z,27.20
2022-08-16T08:40:10.795Z,27.20
2022-08-16T08:41:33.024Z,27.30
2022-08-16T08:43:00.268Z,27.40
2022-08-16T08:44:28.425Z,27.40
2022-08-16T08:45:55.605Z,27.60
2022-08-16T08:47:18.889Z,27.60
2022-08-16T08:48:45.205Z,27.60
2022-08-16T08:50:31.669Z,27.60
2022-08-16T08:51:54.512Z,27.60
2022-08-16T08:53:17.159Z,27.80
2022-08-16T08:54:39.349Z,27.80
2022-08-16T08:56:23.847Z,27.80
2022-08-16T08:57:47.777Z,27.80
2022-08-16T08:59:13.061Z,27.80
2022-08-16T09:00:51.049Z,27.80
2022-08-16T09:02:16.134Z,27.90
2022-08-16T09:03:41.754Z,27.90
2022-08-16T09:05:15.188Z,28.00
2022-08-16T09:06:43.062Z,28.00
2022-08-16T09:08:06.502Z,28.10
2022-08-16T09:09:33.135Z,28.10
2022-08-16T09:11:02.541Z,28.20
2022-08-16T09:12:36.297Z,28.30
2022-08-16T09:14:08.497Z,28.40
2022-08-16T09:15:49.066Z,28.50
2022-08-16T09:17:31.546Z,28.50
2022-08-16T09:18:57.727Z,28.60
2022-08-16T09:20:27.674Z,28.60
2022-08-16T09:21:56.110Z,28.70
2022-08-16T09:23:18.798Z,28.80
2022-08-16T09:24:52.142Z,28.80
2022-08-16T09:26:44.707Z,28.80
2022-08-16T09:28:02.549Z,28.70
2022-08-16T09:29:45.360Z,28.70
2022-08-16T09:31:07.932Z,28.80
2022-08-16T09:32:33.122Z,28.80
2022-08-16T09:33:55.607Z,28.80
2022-08-16T09:35:17.672Z,28.80
2022-08-16T09:36:45.171Z,28.80
2022-08-16T09:38:09.849Z,28.90
2022-08-16T09:39:41.008Z,28.90
2022-08-16T09:41:06.575Z,28.90
2022-08-16T09:42:55.884Z,29.00
2022-08-16T09:45:13.191Z,29.10
2022-08-16T09:46:45.045Z,29.10
2022-08-16T09:47:57.186Z,29.10
2022-08-16T09:49:20.492Z,29.20
2022-08-16T09:50:44.834Z,29.30
2022-08-16T09:52:10.019Z,29.30
2022-08-16T09:53:32.371Z,29.40
2022-08-16T09:54:56.001Z,29.30
2022-08-16T09:56:31.645Z,29.30
2022-08-16T09:57:54.063Z,29.30
2022-08-16T09:59:16.264Z,29.40
2022-08-16T10:00:44.716Z,29.40
2022-08-16T10:02:27.132Z,29.50
2022-08-16T10:04:02.333Z,29.60
2022-08-16T10:05:27.031Z,29.70
2022-08-16T10:06:50.019Z,29.70
2022-08-16T10:08:25.530Z,29.70
2022-08-16T10:09:55.231Z,29.70
2022-08-16T10:11:49.915Z,29.80
2022-08-16T10:13:12.703Z,29.90
2022-08-16T10:14:36.600Z,29.90
2022-08-16T10:15:59.772Z,29.90
2022-08-16T10:17:21.927Z,29.90
2022-08-16T10:19:00.795Z,29.90
2022-08-16T10:20:28.138Z,30.00
2022-08-16T10:21:56.419Z,30.10
2022-08-16T10:23:18.750Z,30.20
2022-08-16T10:24:55.967Z,30.20
2022-08-16T10:27:17.930Z,30.30
2022-08-16T10:28:28.240Z,30.30
2022-08-16T10:30:01.160Z,30.40
2022-08-16T10:31:43.771Z,30.40
2022-08-16T10:33:09.070Z,30.50
2022-08-16T10:34:33.456Z,30.60
2022-08-16T10:35:57.665Z,30.60
2022-08-16T10:37:32.227Z,30.60
2022-08-16T10:38:58.311Z,30.70
2022-08-16T10:40:29.222Z,30.60
2022-08-16T10:41:52.489Z,30.60
2022-08-16T10:43:16.823Z,30.60
2022-08-16T10:44:42.426Z,30.60
2022-08-16T10:46:39.959Z,30.60
2022-08-16T10:47:58.899Z,30.60
2022-08-16T10:49:24.962Z,30.80
2022-08-16T10:50:51.409Z,30.90
2022-08-16T10:52:18.680Z,31.00
2022-08-16T10:53:41.885Z,31.00
2022-08-16T10:56:56.885Z,31.20
2022-08-16T10:58:19.290Z,31.20
2022-08-16T10:59:46.008Z,31.10
2022-08-16T11:01:43.112Z,30.90
2022-08-16T11:03:04.739Z,30.70
2022-08-16T11:05:04.630Z,30.60
2022-08-16T11:06:12.086Z,30.40
2022-08-16T11:07:43.377Z,30.40
2022-08-16T11:09:25.395Z,30.50
2022-08-16T11:11:12.807Z,30.60
2022-08-16T11:12:31.782Z,30.90
2022-08-16T11:13:58.749Z,31.00
2022-08-16T11:15:21.790Z,31.20
2022-08-16T11:17:09.330Z,31.30
2022-08-16T11:18:48.629Z,31.40
2022-08-16T11:22:22.803Z,31.50
2022-08-16T11:23:38.485Z,31.50
2022-08-16T11:27:32.551Z,31.60
2022-08-16T11:30:39.268Z,31.80
2022-08-16T11:32:06.013Z,31.80
2022-08-16T11:35:16.680Z,31.90
2022-08-16T11:36:39.260Z,31.80
2022-08-16T11:38:47.213Z,31.60
2022-08-16T11:40:04.730Z,31.50
2022-08-16T11:41:29.467Z,31.60
2022-08-16T11:42:53.921Z,31.70
2022-08-16T11:44:20.469Z,31.70
2022-08-16T11:46:42.982Z,31.80
2022-08-16T11:47:44.213Z,31.80
2022-08-16T11:49:11.224Z,31.90
2022-08-16T11:50:35.601Z,32.00
2022-08-16T11:51:58.512Z,32.10
2022-08-16T11:53:22.033Z,32.10
2022-08-16T11:54:45.487Z,32.10
2022-08-16T11:57:45.491Z,32.10
2022-08-16T11:59:08.415Z,32.20
2022-08-16T12:00:34.016Z,32.20
2022-08-16T12:02:31.460Z,32.20
2022-08-16T12:03:54.897Z,32.30
2022-08-16T12:05:17.414Z,32.30
2022-08-16T12:06:39.471Z,32.40
2022-08-16T12:08:05.461Z,32.50
2022-08-16T12:09:29.582Z,32.50
2022-08-16T12:12:14.548Z,32.60
2022-08-16T12:13:42.906Z,32.70
2022-08-16T12:15:06.076Z,32.70
2022-08-16T12:16:31.241Z,32.80
2022-08-16T12:17:56.628Z,32.80
2022-08-16T12:19:20.107Z,32.90
2022-08-16T12:22:19.200Z,32.80
2022-08-16T12:23:44.551Z,32.80
2022-08-16T12:25:10.701Z,32.80
2022-08-16T12:26:33.369Z,32.70
2022-08-16T12:29:22.940Z,32.70
2022-08-16T12:30:48.086Z,32.60
2022-08-16T12:32:36.094Z,32.60
2022-08-16T12:33:57.622Z,32.60
2022-08-16T12:35:21.654Z,32.60
2022-08-16T12:36:43.963Z,32.80
2022-08-16T12:38:23.099Z,32.80
2022-08-16T12:39:51.308Z,32.80
2022-08-16T12:41:25.289Z,32.90
2022-08-16T12:42:53.102Z,33.00
2022-08-16T12:44:20.116Z,33.00
2022-08-16T12:45:48.969Z,33.00
2022-08-16T12:47:30.110Z,32.90
2022-08-16T12:48:59.833Z,32.80
2022-08-16T12:50:22.617Z,32.60
2022-08-16T12:53:23.653Z,32.50
2022-08-16T12:54:46.619Z,32.60
2022-08-16T12:56:19.335Z,32.50
2022-08-16T12:57:41.852Z,32.20
2022-08-16T12:59:11.443Z,32.10
2022-08-16T13:00:34.375Z,32.10
2022-08-16T13:01:59.584Z,32.00
2022-08-16T13:03:22.471Z,31.90
2022-08-16T13:04:44.714Z,31.90
2022-08-16T13:06:07.397Z,31.80
2022-08-16T13:07:47.969Z,31.70
2022-08-16T13:09:26.755Z,31.60
2022-08-16T13:10:53.092Z,31.70
2022-08-16T13:12:24.960Z,31.80
2022-08-16T13:13:47.320Z,31.90
2022-08-16T13:15:21.320Z,32.20
2022-08-16T13:16:46.272Z,32.30
2022-08-16T13:18:24.256Z,32.40
2022-08-16T13:20:09.421Z,32.40
2022-08-16T13:21:35.546Z,32.40
2022-08-16T13:23:07.318Z,32.20
2022-08-16T13:24:31.854Z,32.10
2022-08-16T13:25:58.150Z,32.00
2022-08-16T13:27:20.906Z,31.90
2022-08-16T13:29:03.163Z,31.80
2022-08-16T13:30:36.969Z,31.80
2022-08-16T13:32:05.357Z,31.80
2022-08-16T13:33:31.687Z,31.70
2022-08-16T13:34:54.110Z,31.80
2022-08-16T13:39:24.432Z,31.80
2022-08-16T13:42:11.353Z,31.80
2022-08-16T13:43:33.840Z,31.70
2022-08-16T13:44:58.692Z,31.60
2022-08-16T13:46:20.978Z,31.80
2022-08-16T13:47:43.784Z,31.90
2022-08-16T13:49:06.356Z,32.10
2022-08-16T13:50:31.234Z,32.40
2022-08-16T13:52:11.753Z,32.50
2022-08-16T13:53:33.937Z,32.50
2022-08-16T13:54:56.006Z,32.40
2022-08-16T13:56:22.298Z,32.30
2022-08-16T13:58:35.087Z,32.20
2022-08-16T13:59:29.782Z,32.10
2022-08-16T14:00:57.177Z,31.90
2022-08-16T14:02:19.423Z,31.80
2022-08-16T14:03:43.054Z,31.70
2022-08-16T14:05:06.419Z,31.70
2022-08-16T14:06:28.650Z,31.60
2022-08-16T14:07:52.753Z,31.70
2022-08-16T14:09:15.099Z,31.70
2022-08-16T14:10:43.573Z,31.80
2022-08-16T14:12:19.459Z,31.90
2022-08-16T14:13:43.783Z,31.90
2022-08-16T14:15:09.337Z,31.80
2022-08-16T14:16:33.741Z,32.10
2022-08-16T14:18:15.434Z,32.20
2022-08-16T14:19:44.902Z,32.40
2022-08-16T14:21:07.506Z,32.50
2022-08-16T14:22:35.060Z,32.70
2022-08-16T14:24:02.688Z,32.80
2022-08-16T14:26:53.068Z,32.90
2022-08-16T14:28:15.127Z,33.00
2022-08-16T14:29:39.572Z,33.00
2022-08-16T14:31:01.873Z,33.00
2022-08-16T14:32:34.005Z,33.00
2022-08-16T14:33:56.606Z,33.00
2022-08-16T14:35:48.364Z,33.00
2022-08-16T14:37:11.661Z,32.80
2022-08-16T14:38:39.228Z,32.80
2022-08-16T14:40:03.165Z,32.40
2022-08-16T14:41:26.557Z,32.40
2022-08-16T14:42:49.570Z,32.20
2022-08-16T14:44:12.551Z,32.10
2022-08-16T14:45:36.922Z,32.00
2022-08-16T14:48:26.180Z,31.90
2022-08-16T14:51:15.900Z,31.80
2022-08-16T14:52:55.242Z,31.80
2022-08-16T14:54:21.793Z,31.70
2022-08-16T15:00:06.480Z,30.80
2022-08-16T15:01:57.558Z,30.50
2022-08-16T15:03:12.179Z,30.20
2022-08-16T15:04:40.472Z,29.80
2022-08-16T15:06:13.161Z,29.60
2022-08-16T15:07:39.997Z,29.50
2022-08-16T15:09:02.535Z,29.30
2022-08-16T15:10:26.850Z,29.00
2022-08-16T15:11:51.681Z,28.60
2022-08-16T15:13:14.974Z,28.30
2022-08-16T15:14:41.553Z,28.20
2022-08-16T15:16:04.719Z,28.20
2022-08-16T15:17:27.709Z,28.30
2022-08-16T15:18:59.685Z,28.30
2022-08-16T15:20:26.199Z,28.20
2022-08-16T15:21:53.311Z,28.00
2022-08-16T15:23:16.050Z,27.90
2022-08-16T15:24:38.191Z,27.80
2022-08-16T15:26:08.026Z,27.80
2022-08-16T15:27:35.887Z,27.80
2022-08-16T15:28:58.828Z,27.90
2022-08-16T15:30:57.780Z,27.90
2022-08-16T15:32:08.449Z,28.00
2022-08-16T15:33:35.457Z,28.10
2022-08-16T15:35:03.499Z,28.10
2022-08-16T15:36:26.996Z,28.10
2022-08-16T15:37:54.787Z,28.10
2022-08-16T15:39:30.449Z,28.10
2022-08-16T15:40:59.586Z,28.00
2022-08-16T15:42:27.462Z,28.00
2022-08-16T15:43:51.181Z,28.00
2022-08-16T15:45:47.092Z,28.20
2022-08-16T15:47:17.901Z,28.50
2022-08-16T15:48:41.241Z,28.90
2022-08-16T15:50:05.763Z,29.10
2022-08-16T15:51:28.208Z,29.10
2022-08-16T15:52:51.723Z,29.20
2022-08-16T15:54:29.105Z,29.50
2022-08-16T15:55:53.131Z,29.50
2022-08-16T15:57:17.576Z,29.60
2022-08-16T15:58:40.091Z,29.60
2022-08-16T16:00:14.419Z,29.60
2022-08-16T16:01:37.647Z,29.70
2022-08-16T16:03:16.387Z,29.60
2022-08-16T16:04:39.584Z,29.40
2022-08-16T16:06:03.731Z,29.30
2022-08-16T16:07:26.917Z,29.30
2022-08-16T16:08:52.363Z,29.30
2022-08-16T16:10:14.911Z,29.20
2022-08-16T16:11:38.503Z,29.20
2022-08-16T16:13:04.740Z,29.10
2022-08-16T16:14:27.006Z,29.10
2022-08-16T16:15:54.301Z,29.00
2022-08-16T16:17:16.814Z,29.00
2022-08-16T16:18:39.691Z,28.90
2022-08-16T16:20:05.212Z,28.90
2022-08-16T16:21:35.963Z,28.90
2022-08-16T16:23:04.469Z,28.80
2022-08-16T16:24:32.613Z,28.90
2022-08-16T16:25:59.980Z,28.80
2022-08-16T16:27:28.181Z,28.80
2022-08-16T16:29:07.800Z,28.80
2022-08-16T16:30:44.699Z,28.70
2022-08-16T16:32:08.529Z,28.60
2022-08-16T16:33:33.975Z,28.50
2022-08-16T16:34:58.882Z,28.40
2022-08-16T16:36:28.610Z,28.40
2022-08-16T16:37:51.737Z,28.40
2022-08-16T16:39:14.546Z,28.30
2022-08-16T16:40:46.574Z,28.20
2022-08-16T16:42:29.283Z,28.20
2022-08-16T16:43:53.780Z,28.20
2022-08-16T16:45:16.197Z,28.00
2022-08-16T16:46:40.411Z,28.00
2022-08-16T16:48:12.632Z,27.90
2022-08-16T16:49:35.194Z,27.90
2022-08-16T16:51:10.128Z,27.90
2022-08-16T16:52:44.039Z,27.90
2022-08-16T16:54:08.669Z,27.90
2022-08-16T16:55:30.879Z,27.80
2022-08-16T16:56:52.961Z,27.80
2022-08-16T16:58:35.229Z,27.70
2022-08-16T16:59:58.751Z,27.50
2022-08-16T17:01:41.440Z,27.60
2022-08-16T17:03:16.915Z,27.60
2022-08-16T17:04:39.719Z,27.70
2022-08-16T17:06:09.166Z,27.60
2022-08-16T17:07:32.418Z,27.60
2022-08-16T17:08:54.944Z,27.60
2022-08-16T17:10:45.869Z,27.50
2022-08-16T17:11:59.551Z,27.50
2022-08-16T17:13:23.134Z,27.50
2022-08-16T17:14:47.181Z,27.40
2022-08-16T17:16:18.493Z,27.40
2022-08-16T17:18:00.367Z,27.40
2022-08-16T17:19:23.989Z,27.30
2022-08-16T17:20:47.814Z,27.30
2022-08-16T17:22:16.499Z,27.20
2022-08-16T17:23:59.584Z,27.20
2022-08-16T17:25:24.076Z,27.10
2022-08-16T17:26:48.789Z,27.10
2022-08-16T17:28:57.964Z,27.10
2022-08-16T17:29:54.159Z,27.20
2022-08-16T17:31:17.466Z,27.10
2022-08-16T17:32:47.412Z,27.00
2022-08-16T17:34:29.529Z,27.00
2022-08-16T17:35:55.715Z,27.00
2022-08-16T17:37:22.092Z,26.90
2022-08-16T17:38:56.372Z,26.90
2022-08-16T17:40:30.167Z,26.80
2022-08-16T17:42:12.495Z,26.80
2022-08-16T17:43:37.877Z,26.70
2022-08-16T17:45:07.200Z,26.70
2022-08-16T17:46:50.714Z,26.70
2022-08-16T17:48:11.646Z,26.60
2022-08-16T17:49:33.712Z,26.60
2022-08-16T17:50:56.032Z,26.50
2022-08-16T17:52:18.512Z,26.50
2022-08-16T17:53:41.091Z,26.40
2022-08-16T17:55:08.803Z,26.30
2022-08-16T17:56:31.235Z,26.20
2022-08-16T17:57:53.447Z,26.20
2022-08-16T17:59:15.886Z,26.10
2022-08-16T18:00:40.081Z,26.10
2022-08-16T18:02:42.669Z,26.00
2022-08-16T18:04:07.333Z,26.00
2022-08-16T18:05:28.045Z,25.60
2022-08-16T18:06:53.929Z,25.90
2022-08-16T18:08:16.218Z,26.10
2022-08-16T18:09:41.926Z,25.80
2022-08-16T18:11:05.263Z,25.80
2022-08-16T18:12:51.203Z,25.80
2022-08-16T18:14:15.006Z,25.70
2022-08-16T18:15:39.397Z,25.70
2022-08-16T18:17:01.461Z,25.60
2022-08-16T18:18:24.241Z,25.60
2022-08-16T18:19:46.372Z,25.50
2022-08-16T18:21:27.027Z,25.50
2022-08-16T18:22:49.725Z,25.50
2022-08-16T18:24:13.171Z,25.50
2022-08-16T18:25:36.861Z,25.40
2022-08-16T18:27:19.058Z,25.40
2022-08-16T18:28:41.420Z,25.40
2022-08-16T18:30:03.810Z,25.40
2022-08-16T18:31:25.977Z,25.30
2022-08-16T18:32:51.938Z,25.40
2022-08-16T18:34:14.027Z,25.40
2022-08-16T18:35:36.709Z,25.40
2022-08-16T18:36:58.919Z,25.30
2022-08-16T18:38:21.201Z,25.30
2022-08-16T18:39:43.514Z,25.30
2022-08-16T18:41:05.751Z,25.20
2022-08-16T18:42:30.965Z,25.30
2022-08-16T18:43:54.712Z,25.30
2022-08-16T18:45:37.758Z,25.30
2022-08-16T18:47:00.188Z,25.30
2022-08-16T18:48:27.374Z,25.30
2022-08-16T18:49:49.484Z,25.30
2022-08-16T18:51:19.178Z,25.30
2022-08-16T18:52:52.032Z,25.20
2022-08-16T18:54:18.336Z,25.20
2022-08-16T18:55:45.322Z,25.20
2022-08-16T18:57:08.190Z,25.20
2022-08-16T18:58:33.908Z,25.10
2022-08-16T18:59:56.166Z,25.10
2022-08-16T19:01:18.421Z,25.10
2022-08-16T19:02:57.679Z,25.30
2022-08-16T19:04:56.055Z,25.10
2022-08-16T19:06:07.547Z,25.10
2022-08-16T19:07:33.563Z,25.10
2022-08-16T19:08:55.658Z,25.10
2022-08-16T19:10:18.354Z,25.10
2022-08-16T19:11:40.570Z,25.10
2022-08-16T19:13:12.016Z,25.00
2022-08-16T19:14:34.271Z,25.10
2022-08-16T19:15:59.368Z,25.00
2022-08-16T19:17:21.464Z,25.10
2022-08-16T19:18:43.634Z,25.10
2022-08-16T19:20:10.473Z,25.10
2022-08-16T19:21:33.174Z,25.00
2022-08-16T19:23:05.318Z,25.00
2022-08-16T19:24:29.421Z,25.10
2022-08-16T19:26:00.023Z,25.10
2022-08-16T19:27:22.382Z,25.10